Mi Wuk Village, California
Current Conditions -  °F | °C
As of 4:55 PM on Tuesday 21 Oct 2014 (Local Time) from KO22 Reporting Station
Clear Clear  
Wind Chill: 66°   Ceiling: Unl
Heat Index: 66°   Visibility: 10mi
Dew Point: 37°   Wind: 9mph
Humidity: 35%   Direction: 270°W
Pressure: 29.99"   Gusts: NA
Location:  38.07°N, 120.18°W
Report Text: KO22 212355Z AUTO 27008KT 10SM CLR 19/03 A2999 RMK AO1
Loading
Personal Weather Stations






























Interactive Weather Map
Tropical Storm Tracking
New forecast layout! Learn more

10-Day Weather Forecast

Advertisements
Track Severe Weather on mobile